Terminal Aerodrome Forecast
Issued by NWS

Home | Current Version | Previous Version | Text Only | Print | Product List | Glossary On
Versions: 1 2 3 4 5 6 7 8 9 10 11 12 13 14
894
FTUS43 KBIS 231734
TAFMOT
TAF
KMOT 231734Z 2318/2418 34011KT P6SM SCT050 BKN150
     FM240200 32008KT P6SM BKN045 OVC100
     FM240600 30009KT P6SM FEW050 SCT200
     FM241400 33007KT P6SM FEW250=

USA.gov is the U.S. government's official web portal to all federal, state and local government web resources and services.